createdAt,value
2022-11-13T00:00:31.348Z,1.69
2022-11-13T00:03:16.722Z,1.70
2022-11-13T00:06:02.419Z,1.66
2022-11-13T00:08:48.174Z,1.63
2022-11-13T00:11:33.232Z,1.61
2022-11-13T00:14:18.598Z,1.59
2022-11-13T00:17:03.774Z,1.53
2022-11-13T00:19:48.917Z,1.56
2022-11-13T00:22:34.260Z,1.56
2022-11-13T00:25:19.450Z,1.56
2022-11-13T00:28:04.982Z,1.59
2022-11-13T00:30:50.702Z,1.57
2022-11-13T00:34:05.166Z,1.53
2022-11-13T00:36:41.605Z,1.64
2022-11-13T00:39:26.986Z,1.62
2022-11-13T00:42:12.510Z,1.59
2022-11-13T00:44:57.747Z,1.58
2022-11-13T00:47:42.884Z,1.43
2022-11-13T00:50:28.269Z,1.62
2022-11-13T00:53:18.045Z,1.64
2022-11-13T00:56:04.273Z,1.62
2022-11-13T00:58:49.826Z,1.58
2022-11-13T01:01:35.150Z,1.59
2022-11-13T01:04:20.484Z,1.56
2022-11-13T01:07:05.749Z,1.55
2022-11-13T01:09:51.323Z,1.49
2022-11-13T01:12:36.341Z,1.46
2022-11-13T01:15:21.833Z,1.36
2022-11-13T01:18:07.270Z,1.35
2022-11-13T01:20:52.816Z,1.09
2022-11-13T01:23:38.551Z,1.16
2022-11-13T01:26:30.132Z,1.22
2022-11-13T01:29:15.469Z,1.35
2022-11-13T01:32:00.980Z,1.03
2022-11-13T01:34:46.661Z,1.24
2022-11-13T01:37:32.221Z,1.16
2022-11-13T01:40:17.962Z,1.19
2022-11-13T01:43:23.403Z,1.16
2022-11-13T01:46:15.960Z,1.05
2022-11-13T01:49:37.474Z,1.12
2022-11-13T01:52:28.705Z,1.05
2022-11-13T01:55:18.372Z,0.90
2022-11-13T01:58:07.581Z,0.94
2022-11-13T02:00:52.879Z,0.98
2022-11-13T02:03:38.077Z,0.97
2022-11-13T02:06:25.454Z,0.92
2022-11-13T02:09:12.693Z,0.87
2022-11-13T02:11:59.068Z,0.85
2022-11-13T02:14:49.193Z,0.85
2022-11-13T02:17:51.707Z,0.88
2022-11-13T02:20:48.673Z,0.87
2022-11-13T02:23:50.737Z,0.77
2022-11-13T02:26:37.560Z,0.56
2022-11-13T02:29:22.676Z,0.65
2022-11-13T02:32:08.350Z,0.63
2022-11-13T02:34:53.487Z,0.67
2022-11-13T02:37:38.774Z,0.65
2022-11-13T02:40:24.460Z,0.55
2022-11-13T02:43:09.998Z,0.61
2022-11-13T02:45:55.319Z,0.65
2022-11-13T02:48:40.575Z,0.70
2022-11-13T02:51:25.740Z,0.71
2022-11-13T02:54:16.521Z,0.67
2022-11-13T02:57:02.392Z,0.64
2022-11-13T02:59:47.693Z,0.64
2022-11-13T03:02:32.617Z,0.63
2022-11-13T03:05:17.885Z,0.56
2022-11-13T03:08:03.658Z,0.54
2022-11-13T03:10:49.238Z,0.52
2022-11-13T03:13:35.140Z,0.43
2022-11-13T03:16:20.298Z,0.40
2022-11-13T03:19:06.023Z,0.27
2022-11-13T03:21:51.555Z,0.24
2022-11-13T03:24:36.982Z,0.19
2022-11-13T03:27:22.193Z,0.09
2022-11-13T03:30:07.852Z,0.14
2022-11-13T03:32:54.503Z,0.04
2022-11-13T03:35:45.498Z,0.03
2022-11-13T03:38:32.126Z,0.06
2022-11-13T03:41:17.086Z,0.10
2022-11-13T03:44:02.816Z,0.00
2022-11-13T03:46:48.151Z,-0.05
2022-11-13T03:49:33.441Z,-0.20
2022-11-13T03:52:18.442Z,-0.18
2022-11-13T03:55:04.050Z,-0.17
2022-11-13T03:57:49.190Z,-0.20
2022-11-13T04:00:34.914Z,-0.24
2022-11-13T04:03:20.260Z,-0.26
2022-11-13T04:06:05.465Z,-0.33
2022-11-13T04:08:50.489Z,-0.39
2022-11-13T04:11:35.884Z,-0.38
2022-11-13T04:14:21.154Z,-0.44
2022-11-13T04:17:06.389Z,-0.43
2022-11-13T04:19:51.493Z,-0.40
2022-11-13T04:22:37.992Z,-0.40
2022-11-13T04:25:24.710Z,-0.74
2022-11-13T04:28:10.757Z,-0.51
2022-11-13T04:30:56.550Z,-0.58
2022-11-13T04:33:41.547Z,-0.56
2022-11-13T04:36:26.414Z,-0.50
2022-11-13T04:39:11.824Z,-0.41
2022-11-13T04:41:56.922Z,-0.41
2022-11-13T04:44:42.627Z,-0.38
2022-11-13T04:47:27.953Z,-0.45
2022-11-13T04:50:15.363Z,-0.46
2022-11-13T04:53:00.775Z,-0.45
2022-11-13T04:55:46.012Z,-0.56
2022-11-13T04:58:31.466Z,-0.58
2022-11-13T05:01:16.819Z,-0.72
2022-11-13T05:04:02.806Z,-0.66
2022-11-13T05:06:48.388Z,-0.58
2022-11-13T05:09:33.679Z,-0.50
2022-11-13T05:12:19.366Z,-0.75
2022-11-13T05:15:05.209Z,-0.54
2022-11-13T05:17:50.239Z,-0.51
2022-11-13T05:20:35.384Z,-0.45
2022-11-13T05:23:20.865Z,-0.47
2022-11-13T05:26:13.276Z,-0.57
2022-11-13T05:29:00.702Z,-0.87
2022-11-13T05:31:46.246Z,-0.90
2022-11-13T05:34:31.236Z,-0.95
2022-11-13T05:37:16.876Z,-1.03
2022-11-13T05:40:02.478Z,-0.95
2022-11-13T05:42:47.722Z,-0.90
2022-11-13T05:45:33.227Z,-0.97
2022-11-13T05:48:18.776Z,-1.10
2022-11-13T05:51:07.074Z,-0.95
2022-11-13T05:53:53.643Z,-0.85
2022-11-13T05:56:38.903Z,-0.82
2022-11-13T05:59:24.196Z,-0.83
2022-11-13T06:02:09.820Z,-0.81
2022-11-13T06:04:56.537Z,-0.88
2022-11-13T06:07:42.254Z,-1.02
2022-11-13T06:10:27.481Z,-0.99
2022-11-13T06:13:12.772Z,-0.95
2022-11-13T06:16:09.276Z,-1.05
2022-11-13T06:18:59.435Z,-1.04
2022-11-13T06:21:44.464Z,-1.02
2022-11-13T06:24:29.636Z,-1.02
2022-11-13T06:27:14.957Z,-1.15
2022-11-13T06:30:00.344Z,-1.06
2022-11-13T06:32:45.309Z,-1.02
2022-11-13T06:35:30.961Z,-0.95
2022-11-13T06:38:16.332Z,-1.02
2022-11-13T06:41:02.449Z,-0.92
2022-11-13T06:43:48.305Z,-1.11
2022-11-13T06:46:33.932Z,-1.06
2022-11-13T06:53:06.258Z,-0.97
2022-11-13T06:55:51.981Z,-1.02
2022-11-13T06:58:37.828Z,-1.09
2022-11-13T07:01:25.600Z,-1.34
2022-11-13T07:04:13.962Z,-1.25
2022-11-13T07:06:59.459Z,-1.16
2022-11-13T07:09:45.003Z,-1.17
2022-11-13T07:12:30.203Z,-1.08
2022-11-13T07:15:15.604Z,-1.03
2022-11-13T07:18:02.905Z,-1.00
2022-11-13T07:20:48.439Z,-0.96
2022-11-13T07:23:34.961Z,-0.67
2022-11-13T07:26:20.296Z,-0.80
2022-11-13T07:29:05.568Z,-0.78
2022-11-13T07:31:50.807Z,-0.73
2022-11-13T07:34:36.388Z,-0.78
2022-11-13T07:37:21.733Z,-0.87
2022-11-13T07:40:07.541Z,-1.15
2022-11-13T07:42:59.812Z,-1.36
2022-11-13T07:45:45.150Z,-1.30
2022-11-13T07:48:31.067Z,-1.19
2022-11-13T07:51:16.685Z,-1.02
2022-11-13T07:54:01.817Z,-1.08
2022-11-13T07:56:47.046Z,-0.76
2022-11-13T07:59:32.562Z,-0.79
2022-11-13T08:02:20.171Z,-0.58
2022-11-13T08:05:08.884Z,-0.54
2022-11-13T08:07:54.470Z,-0.77
2022-11-13T08:10:40.035Z,-0.63
2022-11-13T08:13:25.805Z,-0.42
2022-11-13T08:16:11.244Z,-0.25
2022-11-13T08:18:57.204Z,-0.13
2022-11-13T08:21:42.516Z,-0.07
2022-11-13T08:24:28.085Z,-0.07
2022-11-13T08:27:13.652Z,-0.12
2022-11-13T08:29:59.029Z,-0.21
2022-11-13T08:32:44.410Z,-0.65
2022-11-13T08:35:29.849Z,-0.49
2022-11-13T08:38:15.255Z,-0.51
2022-11-13T08:41:08.864Z,-0.54
2022-11-13T08:43:55.253Z,-0.56
2022-11-13T08:46:40.888Z,-0.91
2022-11-13T08:49:26.261Z,-0.66
2022-11-13T08:52:11.621Z,-0.45
2022-11-13T08:54:56.936Z,-0.05
2022-11-13T08:57:42.149Z,-0.08
2022-11-13T09:00:29.390Z,-0.02
2022-11-13T09:03:14.545Z,0.19
2022-11-13T09:05:59.559Z,0.32
2022-11-13T09:08:45.004Z,0.47
2022-11-13T09:11:30.605Z,0.46
2022-11-13T09:14:16.257Z,0.30
2022-11-13T09:17:02.287Z,0.52
2022-11-13T09:19:47.380Z,0.58
2022-11-13T09:22:33.171Z,0.84
2022-11-13T09:25:18.129Z,1.02
2022-11-13T09:28:04.146Z,1.29
2022-11-13T09:30:49.880Z,1.39
2022-11-13T09:33:35.811Z,1.62
2022-11-13T09:36:21.181Z,1.75
2022-11-13T09:39:08.321Z,1.84
2022-11-13T09:42:19.118Z,1.80
2022-11-13T09:45:13.706Z,1.95
2022-11-13T09:48:13.112Z,1.96
2022-11-13T09:51:02.181Z,2.18
2022-11-13T09:53:48.321Z,2.37
2022-11-13T09:56:39.605Z,2.56
2022-11-13T09:59:32.725Z,2.58
2022-11-13T10:02:29.748Z,2.71
2022-11-13T10:05:24.133Z,2.70
2022-11-13T10:08:23.992Z,2.88
2022-11-13T10:11:14.499Z,3.18
2022-11-13T10:14:20.830Z,3.15
2022-11-13T10:17:24.898Z,3.30
2022-11-13T10:20:20.295Z,3.39
2022-11-13T10:23:25.853Z,3.71
2022-11-13T10:26:16.414Z,3.87
2022-11-13T10:29:11.308Z,3.69
2022-11-13T10:31:57.734Z,4.07
2022-11-13T10:34:46.500Z,3.94
2022-11-13T10:38:07.538Z,3.90
2022-11-13T10:41:10.961Z,4.11
2022-11-13T10:44:18.201Z,4.14
2022-11-13T10:47:15.857Z,4.35
2022-11-13T10:50:12.415Z,4.64
2022-11-13T10:52:58.676Z,4.82
2022-11-13T10:55:46.424Z,5.22
2022-11-13T10:58:31.915Z,5.38
2022-11-13T11:01:24.216Z,5.66
2022-11-13T11:04:14.804Z,5.67
2022-11-13T11:07:20.283Z,5.53
2022-11-13T11:10:30.477Z,5.58
2022-11-13T11:13:22.753Z,5.56
2022-11-13T11:16:11.468Z,5.67
2022-11-13T11:19:12.016Z,5.50
2022-11-13T11:22:08.593Z,5.73
2022-11-13T11:25:04.089Z,5.48
2022-11-13T11:28:00.088Z,5.64
2022-11-13T11:30:59.593Z,5.46
2022-11-13T11:34:01.594Z,5.73
2022-11-13T11:37:15.721Z,5.94
2022-11-13T11:40:05.725Z,5.86
2022-11-13T11:43:01.832Z,5.84
2022-11-13T11:45:47.705Z,5.92
2022-11-13T11:48:34.183Z,6.07
2022-11-13T11:51:23.315Z,5.95
2022-11-13T11:54:14.207Z,5.91
2022-11-13T11:57:44.601Z,5.94
2022-11-13T12:00:32.909Z,5.81
2022-11-13T12:03:44.093Z,5.96
2022-11-13T12:06:38.892Z,6.32
2022-11-13T12:09:30.349Z,6.83
2022-11-13T12:12:47.286Z,7.13
2022-11-13T12:15:47.140Z,7.31
2022-11-13T12:18:44.070Z,7.38
2022-11-13T12:22:15.493Z,7.41
2022-11-13T12:25:09.870Z,7.24
2022-11-13T12:28:10.888Z,7.36
2022-11-13T12:31:12.981Z,7.24
2022-11-13T12:34:06.194Z,7.18
2022-11-13T12:36:53.605Z,7.12
2022-11-13T12:39:53.945Z,7.16
2022-11-13T12:43:14.436Z,7.14
2022-11-13T12:46:09.051Z,7.00
2022-11-13T12:48:54.034Z,7.08
2022-11-13T12:51:40.945Z,7.18
2022-11-13T12:54:27.088Z,7.35
2022-11-13T12:57:12.436Z,7.28
2022-11-13T13:00:10.339Z,7.08
2022-11-13T13:03:29.602Z,6.53
2022-11-13T13:06:30.164Z,6.47
2022-11-13T13:09:49.653Z,6.59
2022-11-13T13:12:47.005Z,6.57
2022-11-13T13:15:41.922Z,6.34
2022-11-13T13:18:31.377Z,6.58
2022-11-13T13:21:18.730Z,6.68
2022-11-13T13:24:27.259Z,6.07
2022-11-13T13:27:36.423Z,5.91
2022-11-13T13:30:23.692Z,5.69
2022-11-13T13:33:23.841Z,5.38
2022-11-13T13:36:12.105Z,5.35
2022-11-13T13:39:20.397Z,5.55
2022-11-13T13:42:25.901Z,5.81
2022-11-13T13:45:25.617Z,5.58
2022-11-13T13:48:13.616Z,5.21
2022-11-13T13:51:00.273Z,5.11
2022-11-13T13:53:46.749Z,5.44
2022-11-13T13:56:32.639Z,5.55
2022-11-13T13:59:31.996Z,5.60
2022-11-13T14:02:20.226Z,5.53
2022-11-13T14:05:24.679Z,5.28
2022-11-13T14:08:21.977Z,5.37
2022-11-13T14:11:25.447Z,4.95
2022-11-13T14:14:20.562Z,5.25
2022-11-13T14:17:05.883Z,4.82
2022-11-13T14:19:55.997Z,4.90
2022-11-13T14:22:44.177Z,5.04
2022-11-13T14:25:29.662Z,4.86
2022-11-13T14:28:20.105Z,4.64
2022-11-13T14:31:08.615Z,4.38
2022-11-13T14:33:54.379Z,4.47
2022-11-13T14:36:40.241Z,4.31
2022-11-13T14:39:31.353Z,4.18
2022-11-13T14:42:25.672Z,4.21
2022-11-13T14:45:17.081Z,4.15
2022-11-13T14:48:24.515Z,3.97
2022-11-13T14:51:24.205Z,3.75
2022-11-13T14:55:00.517Z,3.58
2022-11-13T14:57:49.953Z,3.02
2022-11-13T15:00:37.034Z,2.73
2022-11-13T15:03:22.427Z,2.52
2022-11-13T15:06:14.059Z,2.41
2022-11-13T15:08:59.698Z,2.34
2022-11-13T15:11:44.916Z,2.13
2022-11-13T15:14:30.389Z,2.07
2022-11-13T15:17:19.326Z,1.76
2022-11-13T15:20:09.507Z,1.65
2022-11-13T15:22:57.175Z,1.35
2022-11-13T15:25:43.193Z,1.20
2022-11-13T15:28:28.918Z,0.69
2022-11-13T15:31:35.031Z,0.27
2022-11-13T15:34:20.396Z,0.36
2022-11-13T15:37:13.758Z,0.21
2022-11-13T15:39:59.212Z,0.43
2022-11-13T15:42:44.933Z,0.50
2022-11-13T15:45:30.047Z,0.53
2022-11-13T15:48:15.103Z,0.66
2022-11-13T15:51:00.379Z,0.92
2022-11-13T15:53:49.281Z,1.28
2022-11-13T15:56:34.198Z,1.76
2022-11-13T15:59:19.489Z,2.03
2022-11-13T16:02:04.367Z,2.13
2022-11-13T16:04:56.607Z,1.69
2022-11-13T16:07:42.848Z,1.19
2022-11-13T16:10:28.487Z,0.83
2022-11-13T16:13:13.899Z,0.34
2022-11-13T16:16:00.516Z,0.30
2022-11-13T16:18:46.519Z,-0.17
2022-11-13T16:21:31.672Z,0.16
2022-11-13T16:24:20.991Z,0.18
2022-11-13T16:27:13.298Z,0.11
2022-11-13T16:30:03.725Z,0.17
2022-11-13T16:32:51.990Z,0.30
2022-11-13T16:35:37.319Z,0.13
2022-11-13T16:38:22.663Z,0.25
2022-11-13T16:41:11.008Z,0.14
2022-11-13T16:43:56.436Z,0.23
2022-11-13T16:46:45.191Z,0.40
2022-11-13T16:49:30.864Z,0.52
2022-11-13T16:52:16.834Z,0.49
2022-11-13T16:55:06.283Z,0.40
2022-11-13T16:57:51.847Z,0.20
2022-11-13T17:00:37.389Z,0.34
2022-11-13T17:03:22.740Z,0.09
2022-11-13T17:06:20.414Z,0.25
2022-11-13T17:09:05.992Z,0.02
2022-11-13T17:11:53.476Z,0.38
2022-11-13T17:14:39.548Z,0.55
2022-11-13T17:17:25.798Z,0.37
2022-11-13T17:20:11.147Z,0.03
2022-11-13T17:22:56.779Z,0.02
2022-11-13T17:25:42.025Z,0.03
2022-11-13T17:28:27.386Z,-0.12
2022-11-13T17:31:12.706Z,0.03
2022-11-13T17:33:57.985Z,-0.24
2022-11-13T17:36:43.465Z,-0.52
2022-11-13T17:39:28.744Z,-0.77
2022-11-13T17:42:13.668Z,-0.74
2022-11-13T17:44:59.073Z,-0.79
2022-11-13T17:47:44.023Z,-0.77
2022-11-13T17:50:29.487Z,-0.61
2022-11-13T17:53:14.422Z,-0.45
2022-11-13T17:56:02.592Z,-0.76
2022-11-13T17:58:48.159Z,-0.59
2022-11-13T18:01:33.807Z,-0.73
2022-11-13T18:04:18.965Z,-0.49
2022-11-13T18:07:04.571Z,-0.33
2022-11-13T18:09:49.636Z,-0.40
2022-11-13T18:12:34.914Z,-0.49
2022-11-13T18:15:20.330Z,-0.51
2022-11-13T18:18:07.398Z,-0.61
2022-11-13T18:20:52.877Z,-0.74
2022-11-13T18:23:38.537Z,-0.70
2022-11-13T18:26:24.671Z,-0.59
2022-11-13T18:29:10.471Z,-0.88
2022-11-13T18:31:55.730Z,-0.85
2022-11-13T18:34:41.171Z,-0.87
2022-11-13T18:37:26.749Z,-0.70
2022-11-13T18:40:12.466Z,-0.87
2022-11-13T18:42:57.833Z,-0.73
2022-11-13T18:45:43.502Z,-0.76
2022-11-13T18:48:30.351Z,-0.91
2022-11-13T18:51:19.461Z,-0.79
2022-11-13T18:54:09.617Z,-0.83
2022-11-13T18:56:55.426Z,-0.83
2022-11-13T18:59:40.486Z,-1.78
2022-11-13T19:02:26.093Z,-0.86
2022-11-13T19:05:11.277Z,-0.86
2022-11-13T19:07:56.476Z,-0.92
2022-11-13T19:10:41.990Z,-1.08
2022-11-13T19:13:27.151Z,-1.02
2022-11-13T19:16:18.225Z,-0.97
2022-11-13T19:19:21.542Z,-0.83
2022-11-13T19:22:07.128Z,-0.66
2022-11-13T19:24:52.511Z,-1.04
2022-11-13T19:27:37.913Z,-1.14
2022-11-13T19:30:23.410Z,-1.15
2022-11-13T19:33:08.895Z,-1.13
2022-11-13T19:35:55.770Z,-0.93
2022-11-13T19:38:42.141Z,-0.77
2022-11-13T19:41:29.129Z,-0.47
2022-11-13T19:44:14.326Z,-0.46
2022-11-13T19:46:59.647Z,-0.41
2022-11-13T19:49:45.112Z,-0.32
2022-11-13T19:52:30.321Z,-0.10
2022-11-13T19:55:15.631Z,-0.04
2022-11-13T19:58:01.274Z,-0.05
2022-11-13T20:00:46.569Z,-0.00
2022-11-13T20:03:31.560Z,0.10
2022-11-13T20:06:17.383Z,-0.23
2022-11-13T20:09:03.783Z,0.13
2022-11-13T20:11:49.064Z,0.01
2022-11-13T20:14:38.098Z,-0.12
2022-11-13T20:17:23.818Z,-0.63
2022-11-13T20:20:09.840Z,-0.61
2022-11-13T20:22:55.038Z,-0.53
2022-11-13T20:25:40.102Z,-0.46
2022-11-13T20:28:26.977Z,-0.20
2022-11-13T20:31:19.377Z,-0.05
2022-11-13T20:34:04.535Z,0.08
2022-11-13T20:36:49.981Z,-0.10
2022-11-13T20:39:35.204Z,-0.06
2022-11-13T20:42:20.703Z,-0.02
2022-11-13T20:45:06.195Z,-0.03
2022-11-13T20:47:51.455Z,0.10
2022-11-13T20:50:36.782Z,-0.01
2022-11-13T20:53:22.316Z,-0.07
2022-11-13T20:56:08.723Z,-0.22
2022-11-13T20:58:53.997Z,-0.46
2022-11-13T21:01:39.084Z,-0.35
2022-11-13T21:04:24.488Z,-0.12
2022-11-13T21:07:09.476Z,-0.04
2022-11-13T21:09:55.033Z,0.08
2022-11-13T21:12:40.741Z,-0.18
2022-11-13T21:15:25.666Z,-0.01
2022-11-13T21:18:11.056Z,0.07
2022-11-13T21:21:04.973Z,-0.12
2022-11-13T21:23:49.994Z,-0.22
2022-11-13T21:26:35.212Z,-0.25
2022-11-13T21:29:20.475Z,-0.08
2022-11-13T21:32:06.068Z,-0.08
2022-11-13T21:34:51.606Z,-0.04
2022-11-13T21:37:36.985Z,0.14
2022-11-13T21:40:22.338Z,0.03
2022-11-13T21:43:07.297Z,0.04
2022-11-13T21:45:52.594Z,-0.08
2022-11-13T21:48:37.989Z,-0.27
2022-11-13T21:51:23.716Z,-0.32
2022-11-13T21:54:09.561Z,-0.43
2022-11-13T21:56:54.808Z,-0.38
2022-11-13T21:59:40.108Z,-0.50
2022-11-13T22:02:25.518Z,-0.38
2022-11-13T22:05:10.735Z,-0.41
2022-11-13T22:07:55.871Z,-0.29
2022-11-13T22:10:40.973Z,-0.38
2022-11-13T22:13:26.077Z,-0.26
2022-11-13T22:16:12.623Z,-0.53
2022-11-13T22:19:00.194Z,-0.24
2022-11-13T22:21:46.493Z,-0.12
2022-11-13T22:24:31.669Z,-0.22
2022-11-13T22:27:16.928Z,-0.14
2022-11-13T22:30:02.675Z,-0.15
2022-11-13T22:32:47.979Z,0.03
2022-11-13T22:35:33.222Z,0.11
2022-11-13T22:38:18.655Z,0.18
2022-11-13T22:41:07.705Z,0.34
2022-11-13T22:43:55.527Z,0.20
2022-11-13T22:46:41.006Z,-0.04
2022-11-13T22:49:26.087Z,0.08
2022-11-13T22:52:11.233Z,-0.20
2022-11-13T22:54:56.597Z,-0.21
2022-11-13T22:57:41.701Z,-0.03
2022-11-13T23:00:27.069Z,-0.10
2022-11-13T23:03:12.649Z,-0.06
2022-11-13T23:06:00.599Z,0.25
2022-11-13T23:08:46.691Z,0.19
2022-11-13T23:11:35.823Z,0.62
2022-11-13T23:14:20.930Z,0.57
2022-11-13T23:17:06.301Z,0.52
2022-11-13T23:19:51.541Z,0.38
2022-11-13T23:22:36.925Z,0.52
2022-11-13T23:25:22.158Z,0.43
2022-11-13T23:28:07.537Z,0.22
2022-11-13T23:30:53.930Z,0.06
2022-11-13T23:33:40.158Z,0.05
2022-11-13T23:36:25.589Z,0.13
2022-11-13T23:39:10.828Z,-0.06
2022-11-13T23:41:55.897Z,-0.33
2022-11-13T23:44:41.399Z,-0.32
2022-11-13T23:47:26.606Z,-0.21
2022-11-13T23:50:12.238Z,-0.27
2022-11-13T23:52:57.845Z,-0.42
2022-11-13T23:55:43.645Z,-0.19
2022-11-13T23:58:29.568Z,-0.01
